createdAt,value
2022-09-24T00:01:54.328Z,71.71
2022-09-24T00:04:27.673Z,71.74
2022-09-24T00:06:55.623Z,71.91
2022-09-24T00:09:25.888Z,72.05
2022-09-24T00:11:57.559Z,71.80
2022-09-24T00:14:25.314Z,71.96
2022-09-24T00:16:53.249Z,72.08
2022-09-24T00:19:20.978Z,72.18
2022-09-24T00:21:48.952Z,72.17
2022-09-24T00:24:39.225Z,72.20
2022-09-24T00:27:09.734Z,72.13
2022-09-24T00:29:40.153Z,72.13
2022-09-24T00:32:13.549Z,72.35
2022-09-24T00:34:41.613Z,72.26
2022-09-24T00:37:09.292Z,72.14
2022-09-24T00:39:42.328Z,72.31
2022-09-24T00:42:13.478Z,72.22
2022-09-24T00:44:41.403Z,72.37
2022-09-24T00:47:36.827Z,72.41
2022-09-24T00:50:27.954Z,72.43
2022-09-24T00:53:14.994Z,72.50
2022-09-24T00:55:52.953Z,72.68
2022-09-24T00:58:26.599Z,72.18
2022-09-24T01:01:01.961Z,72.31
2022-09-24T01:03:42.463Z,71.86
2022-09-24T01:06:17.520Z,72.12
2022-09-24T01:08:49.279Z,72.54
2022-09-24T01:11:33.648Z,72.31
2022-09-24T01:14:32.900Z,72.48
2022-09-24T01:17:19.063Z,72.63
2022-09-24T01:20:34.294Z,72.56
2022-09-24T01:23:43.766Z,72.35
2022-09-24T01:27:00.046Z,72.49
2022-09-24T01:29:56.073Z,72.58
2022-09-24T01:32:49.695Z,72.68
2022-09-24T01:35:39.358Z,72.60
2022-09-24T01:38:12.371Z,72.64
2022-09-24T01:40:47.937Z,72.48
2022-09-24T01:43:24.412Z,72.53
2022-09-24T01:46:03.249Z,72.42
2022-09-24T01:48:39.050Z,72.84
2022-09-24T01:51:24.167Z,72.66
2022-09-24T01:54:13.845Z,72.67
2022-09-24T01:56:56.151Z,72.88
2022-09-24T02:00:00.570Z,72.65
2022-09-24T02:02:52.362Z,72.74
2022-09-24T02:05:59.755Z,72.88
2022-09-24T02:08:42.073Z,72.82
2022-09-24T02:11:17.028Z,72.91
2022-09-24T02:14:05.824Z,72.72
2022-09-24T02:16:46.687Z,72.71
2022-09-24T02:19:27.834Z,72.89
2022-09-24T02:21:55.812Z,72.78
2022-09-24T02:24:47.835Z,72.91
2022-09-24T02:27:21.281Z,72.99
2022-09-24T02:29:49.125Z,72.82
2022-09-24T02:32:23.361Z,73.03
2022-09-24T02:35:02.009Z,72.86
2022-09-24T02:37:38.910Z,72.97
2022-09-24T02:40:15.725Z,72.95
2022-09-24T02:42:46.259Z,72.96
2022-09-24T02:45:17.253Z,72.87
2022-09-24T02:47:45.156Z,73.08
2022-09-24T02:50:14.188Z,73.03
2022-09-24T02:52:42.920Z,73.04
2022-09-24T02:55:10.814Z,72.94
2022-09-24T02:57:39.808Z,72.57
2022-09-24T03:00:12.788Z,72.70
2022-09-24T03:02:40.552Z,72.96
2022-09-24T03:05:13.618Z,72.81
2022-09-24T03:07:44.128Z,72.74
2022-09-24T03:10:11.931Z,73.01
2022-09-24T03:12:45.590Z,72.91
2022-09-24T03:15:14.767Z,72.91
2022-09-24T03:17:42.464Z,72.76
2022-09-24T03:20:12.925Z,72.98
2022-09-24T03:22:40.941Z,73.04
2022-09-24T03:25:12.433Z,72.95
2022-09-24T03:27:40.181Z,72.60
2022-09-24T03:30:32.486Z,73.00
2022-09-24T03:33:05.486Z,73.05
2022-09-24T03:35:34.634Z,73.31
2022-09-24T03:38:02.370Z,73.32
2022-09-24T03:40:32.758Z,73.16
2022-09-24T03:43:02.865Z,73.16
2022-09-24T03:45:33.099Z,73.07
2022-09-24T03:48:02.574Z,72.93
2022-09-24T03:50:30.273Z,73.02
2022-09-24T03:52:59.272Z,73.17
2022-09-24T03:55:27.266Z,73.20
2022-09-24T03:57:56.552Z,73.31
2022-09-24T04:00:24.334Z,73.34
2022-09-24T04:02:52.258Z,73.03
2022-09-24T04:05:22.241Z,72.99
2022-09-24T04:07:49.971Z,73.18
2022-09-24T04:10:18.280Z,73.07
2022-09-24T04:12:50.535Z,73.26
2022-09-24T04:15:22.044Z,73.27
2022-09-24T04:17:57.224Z,73.36
2022-09-24T04:20:29.694Z,73.55
2022-09-24T04:23:01.643Z,73.48
2022-09-24T04:25:34.080Z,73.30
2022-09-24T04:28:09.069Z,73.29
2022-09-24T04:30:40.882Z,73.50
2022-09-24T04:33:13.105Z,73.70
2022-09-24T04:35:41.522Z,73.77
2022-09-24T04:38:14.160Z,73.79
2022-09-24T04:40:42.168Z,73.83
2022-09-24T04:43:10.147Z,73.88
2022-09-24T04:45:38.523Z,73.89
2022-09-24T04:48:06.390Z,73.80
2022-09-24T04:50:34.565Z,73.73
2022-09-24T04:53:02.562Z,73.90
2022-09-24T04:55:32.340Z,73.74
2022-09-24T04:58:00.353Z,73.79
2022-09-24T05:00:28.050Z,73.79
2022-09-24T05:03:00.570Z,74.16
2022-09-24T05:05:28.836Z,74.08
2022-09-24T05:07:58.581Z,74.00
2022-09-24T05:10:28.192Z,74.18
2022-09-24T05:12:56.316Z,74.12
2022-09-24T05:15:24.285Z,74.13
2022-09-24T05:17:52.499Z,74.35
2022-09-24T05:20:21.200Z,74.34
2022-09-24T05:22:50.290Z,74.34
2022-09-24T05:25:23.837Z,74.13
2022-09-24T05:27:55.091Z,74.39
2022-09-24T05:30:26.263Z,74.41
2022-09-24T05:32:53.996Z,74.45
2022-09-24T05:35:24.465Z,74.04
2022-09-24T05:37:55.776Z,74.29
2022-09-24T05:40:42.036Z,74.26
2022-09-24T05:43:10.554Z,74.43
2022-09-24T05:45:38.882Z,74.38
2022-09-24T05:48:06.832Z,74.46
2022-09-24T05:50:35.446Z,74.44
2022-09-24T05:53:05.645Z,74.34
2022-09-24T05:55:34.610Z,74.43
2022-09-24T05:58:13.661Z,74.29
2022-09-24T06:00:41.689Z,74.41
2022-09-24T06:03:16.839Z,74.31
2022-09-24T06:05:52.074Z,74.44
2022-09-24T06:08:21.078Z,74.34
2022-09-24T06:10:49.447Z,74.45
2022-09-24T06:13:22.792Z,74.25
2022-09-24T06:15:51.159Z,74.21
2022-09-24T06:18:20.454Z,74.27
2022-09-24T06:20:49.423Z,74.41
2022-09-24T06:23:17.130Z,74.33
2022-09-24T06:25:51.252Z,74.27
2022-09-24T06:28:19.193Z,74.23
2022-09-24T06:30:47.446Z,74.18
2022-09-24T06:33:15.345Z,74.37
2022-09-24T06:35:45.026Z,74.28
2022-09-24T06:38:17.003Z,74.23
2022-09-24T06:40:50.736Z,74.26
2022-09-24T06:43:19.017Z,74.34
2022-09-24T06:45:47.386Z,74.42
2022-09-24T06:48:15.342Z,74.38
2022-09-24T06:50:45.783Z,74.39
2022-09-24T06:53:16.337Z,74.44
2022-09-24T06:55:46.920Z,74.43
2022-09-24T06:58:20.772Z,74.50
2022-09-24T07:00:54.034Z,74.49
2022-09-24T07:03:22.662Z,74.39
2022-09-24T07:05:51.282Z,74.32
2022-09-24T07:08:22.816Z,74.31
2022-09-24T07:10:53.281Z,74.37
2022-09-24T07:13:22.729Z,74.42
2022-09-24T07:15:53.394Z,74.50
2022-09-24T07:18:22.099Z,74.45
2022-09-24T07:20:55.938Z,74.44
2022-09-24T07:23:25.089Z,74.40
2022-09-24T07:25:57.865Z,74.38
2022-09-24T07:28:27.369Z,74.41
2022-09-24T07:31:00.650Z,74.33
2022-09-24T07:33:33.085Z,74.38
2022-09-24T07:36:09.003Z,74.38
2022-09-24T07:38:36.721Z,74.31
2022-09-24T07:41:09.680Z,74.30
2022-09-24T07:43:40.213Z,74.32
2022-09-24T07:46:10.076Z,74.44
2022-09-24T07:48:38.014Z,74.37
2022-09-24T07:51:11.936Z,74.29
2022-09-24T07:53:39.747Z,74.27
2022-09-24T07:56:09.199Z,74.25
2022-09-24T07:58:37.131Z,74.13
2022-09-24T08:01:06.543Z,74.11
2022-09-24T08:03:38.246Z,74.27
2022-09-24T08:06:07.795Z,74.27
2022-09-24T08:08:39.055Z,74.31
2022-09-24T08:11:10.795Z,74.19
2022-09-24T08:13:38.523Z,74.07
2022-09-24T08:16:08.384Z,74.08
2022-09-24T08:18:37.429Z,74.08
2022-09-24T08:21:13.233Z,73.94
2022-09-24T08:23:43.771Z,74.07
2022-09-24T08:26:14.116Z,73.91
2022-09-24T08:28:44.121Z,73.37
2022-09-24T08:31:14.150Z,73.19
2022-09-24T08:33:41.996Z,72.85
2022-09-24T08:36:12.434Z,72.82
2022-09-24T08:38:42.008Z,72.96
2022-09-24T08:41:33.456Z,72.80
2022-09-24T08:44:42.317Z,72.69
2022-09-24T08:47:24.194Z,72.58
2022-09-24T08:50:04.067Z,72.31
2022-09-24T08:52:44.016Z,72.36
2022-09-24T08:55:31.560Z,72.22
2022-09-24T08:58:17.767Z,72.39
2022-09-24T09:01:07.244Z,72.33
2022-09-24T09:04:00.167Z,72.56
2022-09-24T09:06:54.293Z,72.45
2022-09-24T09:09:34.674Z,71.89
2022-09-24T09:12:12.760Z,72.24
2022-09-24T09:14:52.792Z,71.84
2022-09-24T09:17:33.559Z,71.70
2022-09-24T09:20:07.783Z,71.63
2022-09-24T09:22:47.033Z,71.42
2022-09-24T09:25:30.132Z,71.30
2022-09-24T09:28:15.434Z,70.94
2022-09-24T09:30:53.039Z,70.78
2022-09-24T09:33:33.051Z,70.49
2022-09-24T09:36:22.195Z,70.27
2022-09-24T09:39:02.462Z,70.32
2022-09-24T09:41:40.413Z,69.97
2022-09-24T09:44:26.806Z,70.17
2022-09-24T09:47:04.255Z,69.68
2022-09-24T09:49:39.735Z,69.71
2022-09-24T09:52:22.733Z,69.68
2022-09-24T09:54:52.449Z,69.51
2022-09-24T09:57:25.919Z,69.35
2022-09-24T09:59:56.056Z,69.37
2022-09-24T10:02:34.078Z,69.17
2022-09-24T10:05:05.581Z,68.85
2022-09-24T10:07:45.565Z,68.89
2022-09-24T10:10:24.203Z,68.80
2022-09-24T10:13:14.349Z,68.50
2022-09-24T10:15:53.646Z,68.42
2022-09-24T10:18:44.716Z,68.24
2022-09-24T10:21:28.436Z,68.08
2022-09-24T10:24:05.313Z,67.58
2022-09-24T10:26:45.543Z,67.57
2022-09-24T10:29:41.975Z,67.58
2022-09-24T10:32:25.788Z,66.84
2022-09-24T10:35:20.046Z,66.63
2022-09-24T10:37:57.504Z,66.37
2022-09-24T10:40:39.646Z,66.37
2022-09-24T10:43:16.012Z,66.15
2022-09-24T10:46:13.879Z,66.04
2022-09-24T10:48:59.488Z,65.96
2022-09-24T10:52:04.939Z,66.13
2022-09-24T10:54:49.882Z,65.38
2022-09-24T10:57:55.212Z,65.37
2022-09-24T11:00:39.266Z,65.21
2022-09-24T11:03:47.985Z,65.17
2022-09-24T11:06:25.014Z,64.84
2022-09-24T11:09:15.240Z,64.85
2022-09-24T11:11:57.110Z,64.40
2022-09-24T11:14:46.039Z,64.67
2022-09-24T11:17:21.073Z,64.56
2022-09-24T11:20:11.099Z,64.40
2022-09-24T11:23:08.342Z,63.95
2022-09-24T11:25:49.529Z,63.71
2022-09-24T11:28:45.058Z,63.78
2022-09-24T11:31:30.113Z,63.56
2022-09-24T11:34:19.544Z,63.78
2022-09-24T11:37:04.685Z,63.46
2022-09-24T11:40:01.743Z,63.45
2022-09-24T11:42:36.115Z,63.05
2022-09-24T11:45:34.332Z,63.04
2022-09-24T11:48:11.035Z,63.16
2022-09-24T11:50:57.203Z,62.84
2022-09-24T11:53:39.552Z,62.77
2022-09-24T11:56:33.636Z,62.78
2022-09-24T11:59:22.527Z,62.67
2022-09-24T12:01:57.470Z,62.66
2022-09-24T12:04:40.397Z,62.28
2022-09-24T12:07:32.355Z,62.34
2022-09-24T12:10:23.317Z,62.07
2022-09-24T12:13:14.652Z,61.98
2022-09-24T12:15:58.547Z,61.89
2022-09-24T12:18:33.175Z,61.92
2022-09-24T12:21:19.517Z,62.00
2022-09-24T12:23:51.541Z,61.64
2022-09-24T12:26:23.019Z,61.78
2022-09-24T12:29:51.426Z,61.48
2022-09-24T12:32:47.279Z,61.37
2022-09-24T12:35:57.215Z,61.29
2022-09-24T12:38:42.097Z,61.07
2022-09-24T12:41:25.998Z,60.78
2022-09-24T12:44:12.619Z,61.04
2022-09-24T12:46:54.573Z,60.93
2022-09-24T12:49:25.066Z,60.86
2022-09-24T12:52:16.797Z,60.78
2022-09-24T12:54:46.183Z,60.69
2022-09-24T12:57:29.818Z,60.35
2022-09-24T13:00:02.878Z,60.48
2022-09-24T13:02:47.035Z,60.46
2022-09-24T13:05:20.629Z,60.11
2022-09-24T13:08:03.865Z,60.03
2022-09-24T13:10:36.500Z,59.83
2022-09-24T13:13:31.094Z,59.80
2022-09-24T13:16:21.664Z,59.77
2022-09-24T13:19:02.392Z,59.53
2022-09-24T13:21:33.022Z,59.65
2022-09-24T13:24:12.649Z,59.48
2022-09-24T13:26:40.405Z,59.39
2022-09-24T13:29:26.035Z,59.33
2022-09-24T13:32:03.066Z,59.22
2022-09-24T13:34:34.601Z,59.38
2022-09-24T13:37:13.672Z,59.24
2022-09-24T13:40:06.133Z,59.17
2022-09-24T13:43:07.257Z,59.04
2022-09-24T13:45:45.190Z,58.85
2022-09-24T13:48:37.445Z,58.75
2022-09-24T13:51:15.070Z,58.55
2022-09-24T13:54:00.777Z,58.76
2022-09-24T13:56:30.191Z,58.64
2022-09-24T13:59:14.334Z,58.72
2022-09-24T14:01:47.243Z,58.50
2022-09-24T14:04:22.567Z,58.48
2022-09-24T14:07:13.759Z,58.44
2022-09-24T14:09:49.825Z,58.45
2022-09-24T14:12:23.593Z,58.44
2022-09-24T14:15:00.403Z,58.44
2022-09-24T14:17:28.623Z,58.50
2022-09-24T14:19:59.414Z,58.52
2022-09-24T14:22:34.570Z,58.14
2022-09-24T14:25:25.698Z,58.15
2022-09-24T14:28:00.897Z,58.05
2022-09-24T14:30:33.334Z,58.04
2022-09-24T14:33:12.119Z,57.84
2022-09-24T14:35:45.892Z,57.89
2022-09-24T14:38:28.309Z,57.78
2022-09-24T14:41:18.036Z,57.65
2022-09-24T14:43:53.408Z,57.63
2022-09-24T14:46:33.508Z,57.57
2022-09-24T14:49:30.634Z,57.45
2022-09-24T14:52:01.702Z,57.36
2022-09-24T14:54:40.417Z,57.45
2022-09-24T14:57:17.330Z,57.52
2022-09-24T14:59:48.722Z,57.53
2022-09-24T15:02:19.766Z,57.48
2022-09-24T15:05:04.786Z,57.47
2022-09-24T15:07:39.891Z,57.48
2022-09-24T15:10:18.346Z,57.45
2022-09-24T15:12:46.043Z,57.36
2022-09-24T15:15:19.603Z,57.22
2022-09-24T15:17:49.678Z,57.22
2022-09-24T15:20:20.010Z,57.25
2022-09-24T15:22:52.039Z,57.23
2022-09-24T15:25:24.799Z,57.20
2022-09-24T15:27:56.999Z,57.14
2022-09-24T15:30:25.512Z,57.06
2022-09-24T15:32:58.338Z,57.15
2022-09-24T15:35:30.755Z,56.95
2022-09-24T15:38:00.944Z,56.99
2022-09-24T15:40:36.037Z,57.00
2022-09-24T15:43:04.053Z,56.66
2022-09-24T15:45:32.629Z,56.77
2022-09-24T15:48:01.293Z,56.75
2022-09-24T15:50:32.777Z,56.76
2022-09-24T15:53:04.946Z,56.76
2022-09-24T15:55:37.023Z,56.70
2022-09-24T15:58:19.478Z,56.71
2022-09-24T16:00:49.898Z,56.72
2022-09-24T16:03:30.815Z,56.63
2022-09-24T16:06:02.331Z,56.64
2022-09-24T16:08:30.497Z,56.71
2022-09-24T16:10:59.059Z,56.67
2022-09-24T16:13:27.380Z,56.73
2022-09-24T16:16:00.625Z,56.71
2022-09-24T16:18:30.871Z,56.62
2022-09-24T16:21:07.861Z,56.63
2022-09-24T16:23:35.876Z,56.59
2022-09-24T16:26:06.798Z,56.63
2022-09-24T16:28:37.735Z,56.65
2022-09-24T16:31:08.900Z,56.63
2022-09-24T16:33:43.093Z,56.67
2022-09-24T16:36:11.486Z,56.58
2022-09-24T16:38:40.290Z,56.65
2022-09-24T16:41:11.408Z,56.57
2022-09-24T16:43:39.379Z,56.70
2022-09-24T16:46:16.404Z,56.68
2022-09-24T16:48:50.781Z,56.71
2022-09-24T16:51:20.684Z,56.73
2022-09-24T16:53:56.501Z,56.68
2022-09-24T16:56:26.861Z,56.71
2022-09-24T16:58:54.811Z,56.69
2022-09-24T17:01:22.897Z,56.75
2022-09-24T17:03:59.014Z,56.77
2022-09-24T17:06:32.995Z,56.74
2022-09-24T17:09:23.425Z,56.86
2022-09-24T17:11:51.936Z,56.90
2022-09-24T17:14:23.964Z,56.87
2022-09-24T17:16:51.739Z,56.92
2022-09-24T17:19:20.562Z,57.06
2022-09-24T17:21:53.007Z,57.17
2022-09-24T17:24:22.091Z,57.06
2022-09-24T17:26:51.133Z,57.21
2022-09-24T17:29:21.277Z,57.23
2022-09-24T17:31:50.150Z,57.28
2022-09-24T17:34:19.089Z,57.26
2022-09-24T17:36:48.100Z,57.35
2022-09-24T17:39:17.050Z,57.37
2022-09-24T17:41:45.015Z,57.48
2022-09-24T17:44:15.888Z,57.51
2022-09-24T17:46:43.893Z,57.53
2022-09-24T17:49:12.196Z,57.53
2022-09-24T17:51:40.306Z,57.63
2022-09-24T17:54:12.975Z,57.55
2022-09-24T17:56:41.892Z,57.64
2022-09-24T17:59:12.584Z,57.74
2022-09-24T18:01:43.656Z,57.81
2022-09-24T18:04:15.423Z,58.01
2022-09-24T18:06:45.040Z,57.93
2022-09-24T18:09:14.850Z,57.79
2022-09-24T18:11:46.062Z,57.89
2022-09-24T18:14:22.997Z,57.92
2022-09-24T18:16:51.766Z,58.02
2022-09-24T18:19:20.688Z,58.18
2022-09-24T18:21:49.950Z,58.26
2022-09-24T18:24:18.328Z,58.27
2022-09-24T18:26:51.309Z,58.29
2022-09-24T18:29:21.329Z,58.39
2022-09-24T18:31:51.803Z,58.41
2022-09-24T18:34:20.340Z,58.43
2022-09-24T18:36:48.411Z,58.55
2022-09-24T18:39:23.759Z,58.78
2022-09-24T18:41:53.374Z,58.73
2022-09-24T18:44:22.310Z,58.70
2022-09-24T18:46:51.528Z,58.72
2022-09-24T18:49:19.727Z,58.90
2022-09-24T18:51:49.636Z,58.91
2022-09-24T18:54:19.451Z,59.08
2022-09-24T18:56:47.829Z,59.12
2022-09-24T18:59:19.078Z,59.08
2022-09-24T19:01:49.075Z,59.02
2022-09-24T19:04:18.450Z,59.05
2022-09-24T19:06:48.488Z,59.13
2022-09-24T19:09:17.627Z,59.44
2022-09-24T19:11:46.943Z,59.40
2022-09-24T19:14:18.660Z,59.69
2022-09-24T19:16:48.337Z,59.61
2022-09-24T19:19:16.729Z,59.75
2022-09-24T19:21:45.545Z,59.81
2022-09-24T19:24:13.607Z,59.89
2022-09-24T19:26:41.968Z,59.94
2022-09-24T19:29:10.383Z,60.08
2022-09-24T19:31:42.853Z,60.14
2022-09-24T19:34:13.282Z,60.08
2022-09-24T19:36:44.963Z,60.01
2022-09-24T19:39:16.471Z,60.21
2022-09-24T19:41:45.494Z,60.26
2022-09-24T19:44:16.660Z,60.38
2022-09-24T19:46:45.458Z,60.44
2022-09-24T19:49:14.895Z,60.55
2022-09-24T19:51:42.994Z,60.63
2022-09-24T19:54:11.754Z,60.56
2022-09-24T19:56:40.440Z,60.62
2022-09-24T19:59:10.353Z,60.66
2022-09-24T20:01:38.570Z,60.75
2022-09-24T20:04:07.738Z,60.83
2022-09-24T20:06:39.485Z,60.80
2022-09-24T20:09:07.799Z,60.90
2022-09-24T20:11:36.346Z,61.08
2022-09-24T20:14:06.324Z,60.97
2022-09-24T20:16:34.433Z,61.02
2022-09-24T20:19:03.317Z,60.99
2022-09-24T20:21:37.227Z,61.12
2022-09-24T20:24:07.918Z,61.19
2022-09-24T20:26:56.039Z,61.04
2022-09-24T20:29:24.989Z,61.17
2022-09-24T20:31:55.848Z,61.06
2022-09-24T20:34:34.460Z,61.19
2022-09-24T20:37:05.879Z,61.33
2022-09-24T20:39:34.684Z,61.29
2022-09-24T20:42:04.194Z,61.44
2022-09-24T20:44:35.106Z,61.39
2022-09-24T20:47:03.504Z,61.37
2022-09-24T20:49:33.483Z,61.50
2022-09-24T20:52:03.538Z,61.43
2022-09-24T20:54:32.335Z,61.35
2022-09-24T20:57:00.198Z,61.41
2022-09-24T20:59:28.343Z,61.50
2022-09-24T21:01:56.841Z,61.40
2022-09-24T21:04:25.087Z,61.62
2022-09-24T21:06:55.559Z,61.65
2022-09-24T21:09:23.971Z,61.70
2022-09-24T21:11:54.769Z,61.72
2022-09-24T21:14:22.853Z,61.75
2022-09-24T21:16:51.008Z,61.61
2022-09-24T21:19:19.178Z,61.73
2022-09-24T21:21:47.380Z,61.73
2022-09-24T21:24:16.490Z,61.66
2022-09-24T21:26:45.592Z,61.83
2022-09-24T21:29:17.003Z,61.82
2022-09-24T21:31:47.881Z,61.93
2022-09-24T21:34:20.994Z,61.80
2022-09-24T21:36:49.702Z,61.87
2022-09-24T21:39:20.437Z,61.92
2022-09-24T21:41:50.413Z,61.82
2022-09-24T21:44:19.536Z,61.93
2022-09-24T21:46:51.138Z,62.04
2022-09-24T21:49:20.224Z,62.06
2022-09-24T21:51:49.290Z,62.17
2022-09-24T21:54:18.411Z,62.16
2022-09-24T21:56:47.935Z,62.17
2022-09-24T21:59:36.338Z,62.11
2022-09-24T22:02:04.976Z,62.12
2022-09-24T22:04:33.635Z,62.21
2022-09-24T22:07:03.005Z,62.27
2022-09-24T22:09:32.481Z,62.37
2022-09-24T22:12:04.132Z,62.41
2022-09-24T22:14:35.052Z,62.34
2022-09-24T22:17:04.296Z,62.43
2022-09-24T22:19:32.660Z,62.36
2022-09-24T22:22:02.816Z,62.43
2022-09-24T22:24:30.547Z,62.48
2022-09-24T22:26:58.478Z,62.48
2022-09-24T22:29:26.834Z,62.44
2022-09-24T22:31:54.787Z,62.62
2022-09-24T22:34:58.257Z,62.51
2022-09-24T22:37:27.927Z,62.56
2022-09-24T22:39:56.943Z,62.43
2022-09-24T22:42:24.854Z,62.69
2022-09-24T22:44:53.247Z,62.61
2022-09-24T22:47:21.118Z,62.67
2022-09-24T22:49:49.282Z,62.71
2022-09-24T22:52:17.174Z,62.72
2022-09-24T22:54:45.539Z,62.79
2022-09-24T22:57:14.146Z,62.79
2022-09-24T22:59:42.116Z,62.80
2022-09-24T23:02:13.396Z,62.97
2022-09-24T23:04:42.692Z,62.97
2022-09-24T23:07:14.275Z,62.84
2022-09-24T23:09:42.897Z,62.88
2022-09-24T23:12:10.706Z,62.96
2022-09-24T23:14:39.199Z,62.88
2022-09-24T23:17:07.984Z,62.96
2022-09-24T23:19:53.023Z,63.01
2022-09-24T23:22:23.083Z,63.15
2022-09-24T23:24:51.907Z,63.06
2022-09-24T23:27:20.861Z,63.10
2022-09-24T23:29:50.098Z,63.07
2022-09-24T23:32:19.166Z,63.18
2022-09-24T23:34:48.833Z,63.20
2022-09-24T23:37:19.295Z,63.17
2022-09-24T23:39:47.034Z,63.05
2022-09-24T23:42:14.797Z,63.33
2022-09-24T23:44:42.684Z,63.27
2022-09-24T23:47:10.591Z,63.40
2022-09-24T23:49:38.509Z,63.37
2022-09-24T23:52:07.533Z,63.28
2022-09-24T23:54:41.803Z,63.25
2022-09-24T23:57:12.755Z,63.33
2022-09-24T23:59:40.949Z,63.44
